Dowagiac, Michigan
Current Conditions -  °F | °C
As of 9:50 AM on Wednesday 26 Nov 2014 (Local Time) from KEKM Reporting Station
Overcast Overcast  
Wind Chill: 18°   Ceiling: 1900
Heat Index: 27°   Visibility: 10mi
Dew Point: 18°   Wind: 8mph
Humidity: 69%   Direction: 130°SE
Pressure: 30.16"   Gusts: NA
Location:  41.98°N, 86.11°W
Report Text: KEKM 261450Z 13007KT 10SM OVC019 M03/M08 A3016 RMK AO2
Loading
Personal Weather Stations






























Interactive Weather Map New forecast layout! Learn more

10-Day Weather Forecast

Advertisements
Track Severe Weather on mobile